createdAt,value
2019-05-17T00:01:59.233Z,21.60
2019-05-17T00:04:26.969Z,21.80
2019-05-17T00:06:53.239Z,21.20
2019-05-17T00:09:19.527Z,21.60
2019-05-17T00:11:47.303Z,21.70
2019-05-17T00:14:13.928Z,21.20
2019-05-17T00:16:40.258Z,21.80
2019-05-17T00:21:36.787Z,21.40
2019-05-17T00:24:03.022Z,21.50
2019-05-17T00:28:56.296Z,22.40
2019-05-17T00:31:23.664Z,21.80
2019-05-17T00:33:49.724Z,21.50
2019-05-17T00:36:17.870Z,21.50
2019-05-17T00:38:48.364Z,22.40
2019-05-17T00:41:11.760Z,22.30
2019-05-17T00:43:37.909Z,21.20
2019-05-17T00:46:06.509Z,22.30
2019-05-17T00:48:32.581Z,21.20
2019-05-17T00:51:02.244Z,21.80
2019-05-17T00:53:26.946Z,21.90
2019-05-17T00:55:53.832Z,21.80
2019-05-17T00:58:19.985Z,21.10
2019-05-17T01:00:47.855Z,22.20
2019-05-17T01:03:16.254Z,22.20
2019-05-17T01:08:09.292Z,21.00
2019-05-17T01:10:36.836Z,21.90
2019-05-17T01:13:03.429Z,21.10
2019-05-17T01:15:29.556Z,21.60
2019-05-17T01:17:56.335Z,22.00
2019-05-17T01:20:22.469Z,21.50
2019-05-17T01:22:48.555Z,22.00
2019-05-17T01:27:43.593Z,21.50
2019-05-17T01:30:11.138Z,21.80
2019-05-17T01:32:37.557Z,21.90
2019-05-17T01:35:04.321Z,21.50
2019-05-17T01:37:30.649Z,22.10
2019-05-17T01:39:57.352Z,21.90
2019-05-17T01:42:26.389Z,21.90
2019-05-17T01:44:52.503Z,22.00
2019-05-17T01:49:46.949Z,21.40
2019-05-17T01:52:12.991Z,21.50
2019-05-17T01:57:07.375Z,21.10
2019-05-17T01:59:33.759Z,20.90
2019-05-17T02:09:34.966Z,21.20
2019-05-17T02:11:50.928Z,21.20
2019-05-17T02:14:17.020Z,21.50
2019-05-17T02:16:43.157Z,21.20
2019-05-17T02:19:09.236Z,20.80
2019-05-17T02:26:30.159Z,21.90
2019-05-17T02:31:24.778Z,20.90
2019-05-17T02:33:53.533Z,21.20
2019-05-17T02:36:22.855Z,21.00
2019-05-17T02:38:48.337Z,21.40
2019-05-17T02:43:43.409Z,21.70
2019-05-17T02:46:09.285Z,21.80
2019-05-17T02:48:35.614Z,21.20
2019-05-17T02:51:03.529Z,20.90
2019-05-17T02:53:33.171Z,20.60
2019-05-17T02:55:57.669Z,21.10
2019-05-17T03:00:53.311Z,20.90
2019-05-17T03:08:12.393Z,21.30
2019-05-17T03:20:32.717Z,20.90
2019-05-17T03:32:55.469Z,20.60
2019-05-17T03:35:18.489Z,20.50
2019-05-17T03:37:45.554Z,21.10
2019-05-17T03:40:35.087Z,21.60
2019-05-17T03:42:42.896Z,20.70
2019-05-17T03:45:13.738Z,20.80
2019-05-17T03:52:38.238Z,21.10
2019-05-17T03:57:32.494Z,21.20
2019-05-17T04:00:03.521Z,20.30
2019-05-17T04:02:27.748Z,20.30
2019-05-17T04:07:23.377Z,20.50
2019-05-17T04:09:48.249Z,20.80
2019-05-17T04:14:42.968Z,21.30
2019-05-17T04:22:03.466Z,21.30
2019-05-17T04:24:32.406Z,21.30
2019-05-17T04:26:58.378Z,20.60
2019-05-17T04:29:24.480Z,21.30
2019-05-17T04:34:22.438Z,20.80
2019-05-17T04:39:17.173Z,21.00
2019-05-17T04:46:42.933Z,21.20
2019-05-17T04:54:03.203Z,20.70
2019-05-17T04:56:32.975Z,21.10
2019-05-17T04:58:58.105Z,20.30
2019-05-17T05:03:52.489Z,20.00
2019-05-17T05:06:18.564Z,20.10
2019-05-17T05:11:12.686Z,20.30
2019-05-17T05:16:07.999Z,20.00
2019-05-17T05:21:03.526Z,20.30
2019-05-17T05:25:57.411Z,20.40
2019-05-17T05:28:23.778Z,20.40
2019-05-17T05:33:18.201Z,20.60
2019-05-17T05:43:08.906Z,21.00
2019-05-17T05:45:35.229Z,21.00
2019-05-17T05:48:01.786Z,20.30
2019-05-17T05:50:28.364Z,20.00
2019-05-17T05:55:23.386Z,20.10
2019-05-17T06:00:17.103Z,21.00
2019-05-17T06:02:43.301Z,21.00
2019-05-17T06:10:08.981Z,20.80
2019-05-17T06:15:04.644Z,20.40
2019-05-17T06:17:31.807Z,20.40
2019-05-17T06:19:58.493Z,21.10
2019-05-17T06:22:24.551Z,20.90
2019-05-17T06:24:52.002Z,20.10
2019-05-17T06:27:18.814Z,20.20
2019-05-17T06:29:44.900Z,20.70
2019-05-17T06:32:11.846Z,21.00
2019-05-17T06:34:39.231Z,20.60
2019-05-17T06:37:05.284Z,21.20
2019-05-17T06:39:32.825Z,21.10
2019-05-17T06:41:59.245Z,20.10
2019-05-17T06:44:25.576Z,21.10
2019-05-17T06:49:18.852Z,19.90
2019-05-17T06:56:38.971Z,20.90
2019-05-17T06:59:05.299Z,21.00
2019-05-17T07:01:31.357Z,20.90
2019-05-17T07:04:00.092Z,20.60
2019-05-17T07:06:29.600Z,20.30
2019-05-17T07:08:56.148Z,20.60
2019-05-17T07:11:22.241Z,20.50
2019-05-17T07:13:49.579Z,21.40
2019-05-17T07:16:16.263Z,20.50
2019-05-17T07:18:42.376Z,20.60
2019-05-17T07:23:36.691Z,21.30
2019-05-17T07:28:30.163Z,20.70
2019-05-17T07:30:59.468Z,21.10
2019-05-17T07:33:25.299Z,21.30
2019-05-17T07:38:19.919Z,20.00
2019-05-17T07:40:46.105Z,20.50
2019-05-17T07:43:14.852Z,21.30
2019-05-17T07:45:40.647Z,20.30
2019-05-17T07:48:09.751Z,21.30
2019-05-17T07:50:36.232Z,21.30
2019-05-17T07:53:02.328Z,20.50
2019-05-17T07:55:30.284Z,21.10
2019-05-17T07:57:56.976Z,21.00
2019-05-17T08:00:23.415Z,21.50
2019-05-17T08:02:50.453Z,20.40
2019-05-17T08:05:17.257Z,21.10
2019-05-17T08:07:43.444Z,20.30
2019-05-17T08:10:11.386Z,21.30
2019-05-17T08:12:40.734Z,20.40
2019-05-17T08:15:10.435Z,21.20
2019-05-17T08:20:10.083Z,21.40
2019-05-17T08:22:36.252Z,20.60
2019-05-17T08:25:03.939Z,21.20
2019-05-17T08:27:30.078Z,20.60
2019-05-17T08:29:59.389Z,21.10
2019-05-17T08:32:25.241Z,21.40
2019-05-17T08:37:20.488Z,20.70
2019-05-17T08:42:13.448Z,21.70
2019-05-17T08:44:39.782Z,21.20
2019-05-17T08:47:05.867Z,21.10
2019-05-17T08:51:59.481Z,21.00
2019-05-17T08:56:52.848Z,21.50
2019-05-17T08:59:20.202Z,21.60
2019-05-17T09:01:46.777Z,22.00
2019-05-17T09:04:13.077Z,21.80
2019-05-17T09:09:09.836Z,21.10
2019-05-17T09:11:35.328Z,21.80
2019-05-17T09:14:02.780Z,22.00
2019-05-17T09:16:30.720Z,21.80
2019-05-17T09:18:57.099Z,21.60
2019-05-17T09:21:23.200Z,21.90
2019-05-17T09:26:20.049Z,21.50
2019-05-17T09:28:46.755Z,22.00
2019-05-17T09:31:12.848Z,21.40
2019-05-17T09:33:40.576Z,22.00
2019-05-17T09:36:06.853Z,21.30
2019-05-17T09:38:33.264Z,21.10
2019-05-17T09:40:59.935Z,21.10
2019-05-17T09:43:26.637Z,21.40
2019-05-17T09:45:52.978Z,22.10
2019-05-17T09:48:19.618Z,21.50
2019-05-17T09:55:39.886Z,21.60
2019-05-17T09:58:09.954Z,22.40
2019-05-17T10:00:38.420Z,21.80
2019-05-17T10:03:04.507Z,21.40
2019-05-17T10:07:59.882Z,21.80
2019-05-17T10:10:26.098Z,21.30
2019-05-17T10:15:20.716Z,20.50
2019-05-17T10:17:46.559Z,21.20
2019-05-17T10:20:14.284Z,21.40
2019-05-17T10:22:40.474Z,22.10
2019-05-17T10:25:09.632Z,22.00
2019-05-17T10:27:37.298Z,21.40
2019-05-17T10:30:05.786Z,21.90
2019-05-17T10:35:00.357Z,21.70
2019-05-17T10:37:26.253Z,22.20
2019-05-17T10:39:52.310Z,22.30
2019-05-17T10:42:20.744Z,21.90
2019-05-17T10:47:14.982Z,21.30
2019-05-17T10:49:41.024Z,22.30
2019-05-17T10:52:09.343Z,21.80
2019-05-17T10:54:35.610Z,22.10
2019-05-17T10:57:01.672Z,21.10
2019-05-17T11:01:54.295Z,21.60
2019-05-17T11:04:20.388Z,21.90
2019-05-17T11:06:46.737Z,22.20
2019-05-17T11:09:12.792Z,21.90
2019-05-17T11:11:39.192Z,22.10
2019-05-17T11:14:05.244Z,22.00
2019-05-17T11:16:31.341Z,22.30
2019-05-17T11:26:16.811Z,21.40
2019-05-17T11:28:42.859Z,22.40
2019-05-17T11:31:08.948Z,22.20
2019-05-17T11:33:35.356Z,22.20
2019-05-17T11:38:27.873Z,21.40
2019-05-17T11:40:53.925Z,22.40
2019-05-17T11:43:19.980Z,22.30
2019-05-17T11:45:46.060Z,21.90
2019-05-17T11:48:12.405Z,21.60
2019-05-17T11:50:38.498Z,21.20
2019-05-17T11:55:31.305Z,21.60
2019-05-17T11:57:57.716Z,21.50
2019-05-17T12:00:25.390Z,21.80
2019-05-17T12:02:51.434Z,22.10
2019-05-17T12:05:17.536Z,21.40
2019-05-17T12:07:43.582Z,21.50
2019-05-17T12:12:36.516Z,21.80
2019-05-17T12:15:06.640Z,21.40
2019-05-17T12:17:32.733Z,22.40
2019-05-17T12:19:58.784Z,21.40
2019-05-17T12:24:51.577Z,21.40
2019-05-17T12:27:17.632Z,22.50
2019-05-17T12:29:44.101Z,22.00
2019-05-17T12:32:16.625Z,21.90
2019-05-17T12:37:05.242Z,22.00
2019-05-17T12:39:31.292Z,21.80
2019-05-17T12:41:57.423Z,22.30
2019-05-17T12:44:23.563Z,21.80
2019-05-17T12:46:50.050Z,21.40
2019-05-17T12:49:16.376Z,21.90
2019-05-17T12:51:42.425Z,22.50
2019-05-17T12:54:08.496Z,21.90
2019-05-17T12:56:34.678Z,22.70
2019-05-17T12:59:00.988Z,22.50
2019-05-17T13:01:27.417Z,22.50
2019-05-17T13:03:53.750Z,22.70
2019-05-17T13:06:19.807Z,22.60
2019-05-17T13:08:45.888Z,21.70
2019-05-17T13:13:38.655Z,22.00
2019-05-17T13:16:17.356Z,21.70
2019-05-17T13:23:25.858Z,22.40
2019-05-17T13:25:51.949Z,22.40
2019-05-17T13:28:18.006Z,21.90
2019-05-17T13:33:10.515Z,22.50
2019-05-17T13:35:36.595Z,22.80
2019-05-17T13:38:02.765Z,22.00
2019-05-17T13:42:55.877Z,22.00
2019-05-17T13:45:22.277Z,22.40
2019-05-17T13:50:16.167Z,22.30
2019-05-17T13:52:42.237Z,22.00
2019-05-17T13:57:35.384Z,22.70
2019-05-17T14:00:04.893Z,22.90
2019-05-17T14:02:31.125Z,22.90
2019-05-17T14:04:57.216Z,21.80
2019-05-17T14:07:23.270Z,22.20
2019-05-17T14:12:15.778Z,22.00
2019-05-17T14:14:41.861Z,22.90
2019-05-17T14:17:08.248Z,22.20
2019-05-17T14:19:34.580Z,22.20
2019-05-17T14:22:00.713Z,22.80
2019-05-17T14:24:27.054Z,21.90
2019-05-17T14:26:53.096Z,22.40
2019-05-17T14:29:19.184Z,22.80
2019-05-17T14:31:45.232Z,22.60
2019-05-17T14:34:11.322Z,22.50
2019-05-17T14:36:37.380Z,23.10
2019-05-17T14:39:06.226Z,22.60
2019-05-17T14:48:52.195Z,22.30
2019-05-17T14:51:18.373Z,22.70
2019-05-17T14:53:44.435Z,23.00
2019-05-17T14:56:10.608Z,21.80
2019-05-17T14:58:36.660Z,22.30
2019-05-17T15:01:03.625Z,22.00
2019-05-17T15:05:56.384Z,22.40
2019-05-17T15:08:22.477Z,22.30
2019-05-17T15:10:48.837Z,21.80
2019-05-17T15:13:15.172Z,22.50
2019-05-17T15:20:36.303Z,22.20
2019-05-17T15:23:02.476Z,22.70
2019-05-17T15:25:28.994Z,22.30
2019-05-17T15:30:21.560Z,22.80
2019-05-17T15:35:14.180Z,22.70
2019-05-17T15:37:40.233Z,23.10
2019-05-17T15:40:07.630Z,22.70
2019-05-17T15:42:43.706Z,22.90
2019-05-17T15:45:04.552Z,21.90
2019-05-17T15:49:57.504Z,22.30
2019-05-17T15:54:50.251Z,21.80
2019-05-17T15:59:43.524Z,22.10
2019-05-17T16:02:09.853Z,23.00
2019-05-17T16:04:35.904Z,22.90
2019-05-17T16:07:02.312Z,22.90
2019-05-17T16:11:55.788Z,21.90
2019-05-17T16:14:21.874Z,22.10
2019-05-17T16:16:47.928Z,23.00
2019-05-17T16:19:14.012Z,21.90
2019-05-17T16:21:40.068Z,22.40
2019-05-17T16:24:06.160Z,22.00
2019-05-17T16:26:32.262Z,21.90
2019-05-17T16:28:58.322Z,22.70
2019-05-17T16:31:24.683Z,22.70
2019-05-17T16:33:51.083Z,22.50
2019-05-17T16:36:19.029Z,22.00
2019-05-17T16:38:45.120Z,21.70
2019-05-17T16:41:11.168Z,22.90
2019-05-17T16:48:30.341Z,21.60
2019-05-17T16:50:56.437Z,21.70
2019-05-17T16:55:48.907Z,22.20
2019-05-17T16:58:14.997Z,22.00
2019-05-17T17:00:43.305Z,22.80
2019-05-17T17:03:09.840Z,21.90
2019-05-17T17:05:36.892Z,21.90
2019-05-17T17:10:31.148Z,21.50
2019-05-17T17:12:57.516Z,21.80
2019-05-17T17:15:23.844Z,21.50
2019-05-17T17:20:18.052Z,22.20
2019-05-17T17:22:44.481Z,21.90
2019-05-17T17:25:11.009Z,22.30
2019-05-17T17:27:37.099Z,21.60
2019-05-17T17:32:32.044Z,21.40
2019-05-17T17:37:24.808Z,21.40
2019-05-17T17:39:53.302Z,21.70
2019-05-17T17:42:19.112Z,22.10
2019-05-17T17:44:45.540Z,21.40
2019-05-17T17:47:11.904Z,21.60
2019-05-17T17:49:37.952Z,21.70
2019-05-17T17:52:04.040Z,21.30
2019-05-17T17:54:30.096Z,21.80
2019-05-17T17:56:56.184Z,22.40
2019-05-17T17:59:22.496Z,21.90
2019-05-17T18:01:48.941Z,21.50
2019-05-17T18:04:15.359Z,21.40
2019-05-17T18:09:08.252Z,22.30
2019-05-17T18:11:34.508Z,22.20
2019-05-17T18:14:12.855Z,22.20
2019-05-17T18:16:29.976Z,21.40
2019-05-17T18:21:22.486Z,21.30
2019-05-17T18:23:48.967Z,21.50
2019-05-17T18:26:15.300Z,21.10
2019-05-17T18:28:41.644Z,22.00
2019-05-17T18:36:01.605Z,22.50
2019-05-17T18:40:55.583Z,20.60
2019-05-17T18:43:21.964Z,22.20
2019-05-17T18:45:48.051Z,21.40
2019-05-17T18:50:42.600Z,21.10
2019-05-17T18:55:37.067Z,20.90
2019-05-17T18:58:03.236Z,21.70
2019-05-17T19:00:29.414Z,21.10
2019-05-17T19:02:55.584Z,21.20
2019-05-17T19:05:22.000Z,21.50
2019-05-17T19:07:48.048Z,21.60
2019-05-17T19:10:14.260Z,21.60
2019-05-17T19:12:40.688Z,21.40
2019-05-17T19:15:09.240Z,21.00
2019-05-17T19:17:35.292Z,21.30
2019-05-17T19:20:04.488Z,21.40
2019-05-17T19:22:30.828Z,21.70
2019-05-17T19:24:56.952Z,20.70
2019-05-17T19:27:23.004Z,21.70
2019-05-17T19:29:49.091Z,20.80
2019-05-17T19:32:15.421Z,21.70
2019-05-17T19:34:41.475Z,21.30
2019-05-17T19:37:07.559Z,21.70
2019-05-17T19:39:33.906Z,20.80
2019-05-17T19:42:00.230Z,20.80
2019-05-17T19:46:52.835Z,21.40
2019-05-17T19:49:18.888Z,21.70
2019-05-17T19:51:45.054Z,21.40
2019-05-17T19:54:11.104Z,22.00
2019-05-17T19:56:37.157Z,20.60
2019-05-17T19:59:03.247Z,21.40
2019-05-17T20:01:29.292Z,20.60
2019-05-17T20:03:55.414Z,21.30
2019-05-17T20:06:21.533Z,20.80
2019-05-17T20:08:47.595Z,20.70
2019-05-17T20:11:13.932Z,21.10
2019-05-17T20:13:39.987Z,21.40
2019-05-17T20:16:06.387Z,20.80
2019-05-17T20:18:32.436Z,21.20
2019-05-17T20:20:59.288Z,20.90
2019-05-17T20:23:25.792Z,21.20
2019-05-17T20:25:51.847Z,20.40
2019-05-17T20:28:18.239Z,20.50
2019-05-17T20:30:44.677Z,21.60
2019-05-17T20:35:37.440Z,21.50
2019-05-17T20:40:29.949Z,21.20
2019-05-17T20:42:55.996Z,20.50
2019-05-17T20:45:32.690Z,20.80
2019-05-17T20:47:50.322Z,21.20
2019-05-17T20:50:17.979Z,20.90
2019-05-17T21:00:06.761Z,20.60
2019-05-17T21:02:32.848Z,21.10
2019-05-17T21:04:58.906Z,21.10
2019-05-17T21:09:51.996Z,20.60
2019-05-17T21:12:18.079Z,20.70
2019-05-17T21:14:44.448Z,21.60
2019-05-17T21:19:37.276Z,20.30
2019-05-17T21:22:04.328Z,21.20
2019-05-17T21:24:30.525Z,21.10
2019-05-17T21:31:49.885Z,20.80
2019-05-17T21:34:16.221Z,21.00
2019-05-17T21:36:42.272Z,20.30
2019-05-17T21:39:08.569Z,20.40
2019-05-17T21:41:34.685Z,21.00
2019-05-17T21:44:01.019Z,20.60
2019-05-17T21:48:54.192Z,21.30
2019-05-17T21:51:20.525Z,20.70
2019-05-17T21:53:46.612Z,20.60
2019-05-17T21:56:12.680Z,20.80
2019-05-17T21:58:38.734Z,20.20
2019-05-17T22:08:30.328Z,20.80
2019-05-17T22:10:56.420Z,20.90
2019-05-17T22:13:22.472Z,20.60
2019-05-17T22:15:48.530Z,20.90
2019-05-17T22:18:16.888Z,21.40
2019-05-17T22:20:43.056Z,21.20
2019-05-17T22:23:09.204Z,21.30
2019-05-17T22:25:35.592Z,21.10
2019-05-17T22:28:01.937Z,20.40
2019-05-17T22:30:28.251Z,20.80
2019-05-17T22:32:54.443Z,21.00
2019-05-17T22:35:20.496Z,20.20
2019-05-17T22:37:46.584Z,20.40
2019-05-17T22:40:12.666Z,20.20
2019-05-17T22:45:06.945Z,20.60
2019-05-17T22:47:33.280Z,21.20
2019-05-17T22:52:25.823Z,20.90
2019-05-17T22:54:52.171Z,20.70
2019-05-17T22:57:18.260Z,21.10
2019-05-17T23:02:10.775Z,20.80
2019-05-17T23:04:36.861Z,21.20
2019-05-17T23:07:02.920Z,20.90
2019-05-17T23:09:29.228Z,20.70
2019-05-17T23:11:55.315Z,20.00
2019-05-17T23:14:21.368Z,20.60
2019-05-17T23:16:51.485Z,20.00
2019-05-17T23:19:15.404Z,21.10
2019-05-17T23:21:41.461Z,21.30
2019-05-17T23:26:34.112Z,21.00
2019-05-17T23:29:00.213Z,20.60
2019-05-17T23:33:53.241Z,19.90
2019-05-17T23:36:19.302Z,19.90
2019-05-17T23:41:11.828Z,20.00
2019-05-17T23:43:38.268Z,21.00
2019-05-17T23:46:04.584Z,21.10
2019-05-17T23:50:57.099Z,20.40
2019-05-17T23:53:23.148Z,20.30
2019-05-17T23:55:49.244Z,20.80
